This is the latest recevied weather packets stored in our database for station/object CE4ERM-13. If no packets are shown the sender has not sent any weather packets the latest 10 day(s).
| Time | Temp. | Humidity | Pressure | Rain* | Wind** | Luminosity | Snow |
|---|---|---|---|---|---|---|---|
| 1777966933 | 18.89° C | 37% | 1016.8 hPa | - | - | - | - |
| 1777966885 | 18.89° C | 37% | 1016.8 hPa | - | - | - | - |
| 1777966693 | 21.11° C | 36% | 1014.5 hPa | - | - | - | - |
| 1777965493 | 21.67° C | 35% | 1014.4 hPa | - | - | - | - |
| 1777965084 | 19.44° C | 38% | 1017.9 hPa | - | - | - | - |
| 1777964484 | 19.44° C | 37% | 1015.7 hPa | - | - | - | - |
| 1777964291 | 21.67° C | 35% | 1017.3 hPa | - | - | - | - |
| 1777963692 | 21.67° C | 35% | 1015.3 hPa | - | - | - | - |
| 1777963383 | 19.44° C | 38% | 1019 hPa | - | - | - | - |
| 1777963351 | 19.44° C | 38% | 1019 hPa | - | - | - | - |
| 1777963319 | 19.44° C | 38% | 1019 hPa | - | - | - | - |
| 1777963282 | 19.44° C | 38% | 1019 hPa | - | - | - | - |
| 1777962682 | 19.44° C | 37% | 1020.3 hPa | - | - | - | - |
| 1777962491 | 22.22° C | 34% | 1015.4 hPa | - | - | - | - |
| 1777962082 | 19.44° C | 37% | 1018.2 hPa | - | - | - | - |
| 1777961891 | 22.22° C | 33% | 1016.2 hPa | - | - | - | - |
| 1777961482 | 19.44° C | 37% | 1017.7 hPa | - | - | - | - |
| 1777960881 | 19.44° C | 37% | 1017.2 hPa | - | - | - | - |
| 1777960690 | 22.22° C | 34% | 1017.4 hPa | - | - | - | - |
| 1777960280 | 19.44° C | 37% | 1018.1 hPa | - | - | - | - |
| 1777959713 | 19.44° C | 37% | 1017.8 hPa | - | - | - | - |
| 1777959680 | 19.44° C | 37% | 1017.8 hPa | - | - | - | - |
| 1777959600 | 21.67° C | 33% | 1016.2 hPa | - | - | - | - |
| 1777959488 | 21.67° C | 33% | 1016.2 hPa | - | - | - | - |
| 1777959080 | 20° C | 37% | 1015.6 hPa | - | - | - | - |
* Rain since midnight (hover to see other rain measurements)
** Current wind speed in m/s (hover to see current wind gust speed)